Time;durP1;ratioP1;P1;durP2;ratioP2;P2;SDS_P1;SDS_P2;PMS_P1;PMS_P2;Temp;Humidity;BMP_temperature;BMP_pressure;BME280_temperature;BME280_humidity;BME280_pressure;Samples;Min_cycle;Max_cycle;Signal;HPM_P1;HPM_P2
2023/07/09 00:00:22;;;;;;;;;;;20.10;99.90;;;;;;5134771;27;19923;-79
2023/07/09 00:02:49;;;;;;;;;;;20.10;99.90;;;;;;5135196;27;20316;-80
2023/07/09 00:05:16;;;;;;;;;;;20.10;99.90;;;;;;5118002;27;19919;-83
2023/07/09 00:07:41;;;;;;;;;;;20.00;99.90;;;;;;5135251;27;19923;-81
2023/07/09 00:10:15;;;;;;;;;;;20.00;99.90;;;;;;5117717;27;19930;-82
2023/07/09 00:12:41;;;;;;;;;;;19.90;99.90;;;;;;5135318;27;20307;-81
2023/07/09 00:15:09;;;;;;;;;;;19.90;99.90;;;;;;5134791;27;19965;-82
2023/07/09 00:17:35;;;;;;;;;;;19.90;99.90;;;;;;5117866;27;19986;-79
2023/07/09 00:20:01;;;;;;;;;;;19.90;99.90;;;;;;5117902;27;20376;-78
2023/07/09 00:22:29;;;;;;;;;;;19.80;99.90;;;;;;5134478;27;19944;-78
2023/07/09 00:24:58;;;;;;;;;;;19.80;99.90;;;;;;5117619;27;19934;-84
2023/07/09 00:27:25;;;;;;;;;;;19.80;99.90;;;;;;5117966;27;19929;-83
2023/07/09 00:29:52;;;;;;;;;;;19.80;99.90;;;;;;5117999;27;19925;-82
2023/07/09 00:32:25;;;;;;;;;;;19.80;99.90;;;;;;5134730;27;20291;-80
2023/07/09 00:34:51;;;;;;;;;;;19.70;99.90;;;;;;5134654;27;19919;-80
2023/07/09 00:37:18;;;;;;;;;;;19.70;99.90;;;;;;5134663;27;19923;-78
2023/07/09 00:39:44;;;;;;;;;;;19.70;99.90;;;;;;5117955;27;19923;-77
2023/07/09 00:42:18;;;;;;;;;;;19.90;99.90;;;;;;5117902;27;19923;-79
2023/07/09 00:44:45;;;;;;;;;;;19.60;99.90;;;;;;5138637;27;20459;-75
2023/07/09 00:47:26;;;;;;;;;;;19.50;99.90;;;;;;5138480;27;19944;-76
2023/07/09 00:49:59;;;;;;;;;;;19.50;99.90;;;;;;5114193;27;19927;-77
2023/07/09 00:52:25;;;;;;;;;;;19.50;99.90;;;;;;5117733;27;19942;-78
2023/07/09 00:54:53;;;;;;;;;;;19.50;99.90;;;;;;5117991;27;19923;-80
2023/07/09 00:57:21;;;;;;;;;;;19.40;99.90;;;;;;5117835;27;19923;-79
2023/07/09 01:00:09;;;;;;;;;;;19.30;99.90;;;;;;5118169;27;20340;-80
2023/07/09 01:02:36;;;;;;;;;;;19.30;99.90;;;;;;5118189;27;20014;-79
2023/07/09 01:05:02;;;;;;;;;;;19.30;99.90;;;;;;5118517;27;19923;-81
2023/07/09 01:07:29;;;;;;;;;;;19.30;99.90;;;;;;5100659;27;19920;-81
2023/07/09 01:09:56;;;;;;;;;;;19.20;99.90;;;;;;5117724;27;19927;-83
2023/07/09 01:12:22;;;;;;;;;;;19.20;99.90;;;;;;5100191;27;19927;-78
2023/07/09 01:14:51;;;;;;;;;;;19.20;99.90;;;;;;5117481;27;19931;-80
2023/07/09 01:17:17;;;;;;;;;;;19.20;99.90;;;;;;5100270;27;19919;-76
2023/07/09 01:19:43;;;;;;;;;;;19.10;99.90;;;;;;5083480;27;19919;-79
2023/07/09 01:22:11;;;;;;;;;;;19.20;99.90;;;;;;5100365;27;19953;-80
2023/07/09 01:24:47;;;;;;;;;;;19.20;99.90;;;;;;5104964;28;19924;-79
2023/07/09 01:27:15;;;;;;;;;;;19.20;99.90;;;;;;5093740;28;20231;-78
2023/07/09 01:29:41;;;;;;;;;;;19.00;99.90;;;;;;5113659;28;19930;-78
2023/07/09 01:32:07;;;;;;;;;;;19.10;99.90;;;;;;5113712;28;19920;-80
2023/07/09 01:34:33;;;;;;;;;;;19.00;99.90;;;;;;5096618;28;20276;-79
2023/07/09 01:36:59;;;;;;;;;;;19.00;99.90;;;;;;5097021;28;19983;-80
2023/07/09 01:39:28;;;;;;;;;;;19.00;99.90;;;;;;5113715;28;19924;-81
2023/07/09 01:41:54;;;;;;;;;;;19.00;99.90;;;;;;5080040;28;19924;-82
2023/07/09 01:44:20;;;;;;;;;;;19.00;99.90;;;;;;5096548;28;19930;-74
2023/07/09 01:46:46;;;;;;;;;;;18.90;99.90;;;;;;5097015;28;19920;-79
2023/07/09 01:49:12;;;;;;;;;;;18.90;99.90;;;;;;5078717;28;19931;-77
2023/07/09 01:51:38;;;;;;;;;;;18.80;99.90;;;;;;5113297;28;20014;-81
2023/07/09 01:54:09;;;;;;;;;;;18.80;99.90;;;;;;5112087;28;19944;-79
2023/07/09 01:56:39;;;;;;;;;;;18.90;99.90;;;;;;5113098;28;19969;-80
2023/07/09 01:59:05;;;;;;;;;;;18.80;99.90;;;;;;5113407;28;20011;-82
2023/07/09 02:01:33;;;;;;;;;;;18.40;99.90;;;;;;5096218;28;20026;-80
2023/07/09 02:04:12;;;;;;;;;;;18.80;99.90;;;;;;5115086;28;19926;-80
2023/07/09 02:06:38;;;;;;;;;;;18.80;99.90;;;;;;5115026;28;19985;-77
2023/07/09 02:09:03;;;;;;;;;;;18.70;99.90;;;;;;5097204;28;19926;-82
2023/07/09 02:11:30;;;;;;;;;;;18.60;99.90;;;;;;5113104;28;19923;-79
2023/07/09 02:13:56;;;;;;;;;;;18.60;99.90;;;;;;5096237;28;19924;-78
2023/07/09 02:16:21;;;;;;;;;;;18.70;99.90;;;;;;5096007;28;19931;-76
2023/07/09 02:18:47;;;;;;;;;;;18.70;99.90;;;;;;5112331;28;19923;-77
2023/07/09 02:21:12;;;;;;;;;;;18.60;99.90;;;;;;5113009;28;19920;-78
2023/07/09 02:23:44;;;;;;;;;;;18.60;99.90;;;;;;5115196;27;19980;-80
2023/07/09 02:26:10;;;;;;;;;;;18.60;99.90;;;;;;5137292;27;20364;-78
2023/07/09 02:28:35;;;;;;;;;;;18.60;99.90;;;;;;5119192;27;19923;-78
2023/07/09 02:31:04;;;;;;;;;;;18.50;99.90;;;;;;5155228;27;19973;-80
2023/07/09 02:33:32;;;;;;;;;;;18.60;99.90;;;;;;5119531;27;19970;-80
2023/07/09 02:36:05;;;;;;;;;;;18.50;99.90;;;;;;5136887;27;20026;-78
2023/07/09 02:38:31;;;;;;;;;;;18.50;99.90;;;;;;5119064;27;19923;-75
2023/07/09 02:40:56;;;;;;;;;;;18.40;99.90;;;;;;5136259;27;19927;-77
2023/07/09 02:43:22;;;;;;;;;;;18.40;99.90;;;;;;5135988;27;19927;-78
2023/07/09 02:45:47;;;;;;;;;;;18.30;99.90;;;;;;5102552;27;19919;-79
2023/07/09 02:48:13;;;;;;;;;;;18.30;99.90;;;;;;5119186;27;20359;-78
2023/07/09 02:50:39;;;;;;;;;;;18.40;99.90;;;;;;5121875;27;20293;-79
2023/07/09 02:53:04;;;;;;;;;;;18.30;99.90;;;;;;5081902;27;19963;-82
2023/07/09 02:55:30;;;;;;;;;;;18.30;99.90;;;;;;5098684;27;20333;-82
2023/07/09 02:57:55;;;;;;;;;;;18.80;99.90;;;;;;5115771;27;20288;-78
2023/07/09 03:00:21;;;;;;;;;;;18.30;99.90;;;;;;5081318;27;19927;-79
2023/07/09 03:02:48;;;;;;;;;;;18.20;99.90;;;;;;5081595;27;19927;-82
2023/07/09 03:05:14;;;;;;;;;;;18.30;99.90;;;;;;5132174;27;19926;-79
2023/07/09 03:07:39;;;;;;;;;;;18.20;99.90;;;;;;5097748;27;19919;-78
2023/07/09 03:10:05;;;;;;;;;;;18.20;99.90;;;;;;5114755;27;20101;-77
2023/07/09 03:12:30;;;;;;;;;;;18.10;99.90;;;;;;5114984;27;19958;-78
2023/07/09 03:14:56;;;;;;;;;;;18.20;99.90;;;;;;5115356;27;19942;-81
2023/07/09 03:17:22;;;;;;;;;;;18.10;99.90;;;;;;5114425;27;19923;-78
2023/07/09 03:19:48;;;;;;;;;;;18.10;99.90;;;;;;5114256;27;19920;-82
2023/07/09 03:22:13;;;;;;;;;;;18.10;99.90;;;;;;5134933;27;20299;-78
2023/07/09 03:24:39;;;;;;;;;;;18.00;99.90;;;;;;5134756;27;19923;-79
2023/07/09 03:27:05;;;;;;;;;;;18.10;99.90;;;;;;5118432;27;19966;-78
2023/07/09 03:29:31;;;;;;;;;;;18.00;99.90;;;;;;5118276;27;20287;-81
2023/07/09 03:31:58;;;;;;;;;;;18.00;99.90;;;;;;5118690;27;19922;-83
2023/07/09 03:34:24;;;;;;;;;;;18.00;99.90;;;;;;5135580;27;20263;-79
2023/07/09 03:36:49;;;;;;;;;;;18.00;99.90;;;;;;5135280;27;19919;-80
2023/07/09 03:39:15;;;;;;;;;;;18.00;99.90;;;;;;5135741;27;19926;-81
2023/07/09 03:41:40;;;;;;;;;;;18.00;99.90;;;;;;5101437;27;19973;-83
2023/07/09 03:44:06;;;;;;;;;;;18.00;99.90;;;;;;5135377;27;19923;-79
2023/07/09 03:46:31;;;;;;;;;;;18.00;99.90;;;;;;5135274;27;19927;-79
2023/07/09 03:49:03;;;;;;;;;;;18.00;99.90;;;;;;5119868;27;19927;-80
2023/07/09 03:51:29;;;;;;;;;;;18.10;99.90;;;;;;5135078;27;19918;-79
2023/07/09 03:53:59;;;;;;;;;;;18.10;99.90;;;;;;5154123;27;19933;-80
2023/07/09 03:56:27;;;;;;;;;;;18.10;99.90;;;;;;5135643;27;19929;-80
2023/07/09 03:58:53;;;;;;;;;;;18.10;99.90;;;;;;5134821;27;19959;-80
2023/07/09 04:01:19;;;;;;;;;;;18.20;99.90;;;;;;5134949;27;19919;-84
2023/07/09 04:03:45;;;;;;;;;;;18.20;99.90;;;;;;5117724;27;19926;-80
2023/07/09 04:06:10;;;;;;;;;;;18.20;99.90;;;;;;5118150;27;20538;-80
2023/07/09 04:08:36;;;;;;;;;;;18.20;99.90;;;;;;5134496;27;19923;-83
2023/07/09 04:11:02;;;;;;;;;;;18.30;99.90;;;;;;5152584;27;20283;-77
2023/07/09 04:13:28;;;;;;;;;;;18.40;99.90;;;;;;5100795;27;19922;-81
2023/07/09 04:15:54;;;;;;;;;;;18.50;99.90;;;;;;5118121;27;19926;-80
2023/07/09 04:18:19;;;;;;;;;;;18.60;99.90;;;;;;5102028;27;19919;-80
2023/07/09 04:20:50;;;;;;;;;;;18.60;99.90;;;;;;5119315;27;20022;-80
2023/07/09 04:23:15;;;;;;;;;;;18.70;99.90;;;;;;5118808;27;19931;-81
2023/07/09 04:25:41;;;;;;;;;;;18.80;99.90;;;;;;5101598;27;19991;-82
2023/07/09 04:28:07;;;;;;;;;;;18.80;99.90;;;;;;5102004;27;19924;-80
2023/07/09 04:30:32;;;;;;;;;;;18.90;99.90;;;;;;5084483;27;19945;-82
2023/07/09 04:32:58;;;;;;;;;;;19.00;99.90;;;;;;5118794;27;19934;-80
2023/07/09 04:35:23;;;;;;;;;;;19.10;99.90;;;;;;5102337;27;19926;-79
2023/07/09 04:37:49;;;;;;;;;;;19.20;99.90;;;;;;5101321;27;20334;-83
2023/07/09 04:40:15;;;;;;;;;;;19.30;99.90;;;;;;5102207;27;19923;-85
2023/07/09 04:42:42;;;;;;;;;;;19.40;99.90;;;;;;5084181;27;19924;-81
2023/07/09 04:45:11;;;;;;;;;;;19.50;99.90;;;;;;5137394;27;20318;-80
2023/07/09 04:47:39;;;;;;;;;;;19.60;99.90;;;;;;5101140;27;19919;-80
2023/07/09 04:50:06;;;;;;;;;;;19.60;99.90;;;;;;5127624;27;19979;-80
2023/07/09 04:52:31;;;;;;;;;;;19.80;99.90;;;;;;5142972;27;20283;-82
2023/07/09 04:54:57;;;;;;;;;;;19.90;99.90;;;;;;5124637;27;19919;-80
2023/07/09 04:57:24;;;;;;;;;;;19.90;99.90;;;;;;5139216;27;19922;-77
2023/07/09 04:59:50;;;;;;;;;;;20.00;99.90;;;;;;5121447;27;19923;-79
2023/07/09 05:02:15;;;;;;;;;;;20.20;99.90;;;;;;5138921;27;20013;-77
2023/07/09 05:04:47;;;;;;;;;;;20.30;99.90;;;;;;5122452;27;19926;-84
2023/07/09 05:07:12;;;;;;;;;;;20.40;99.90;;;;;;5121528;27;19919;-82
2023/07/09 05:09:38;;;;;;;;;;;20.50;99.90;;;;;;5120984;27;20006;-79
2023/07/09 05:12:05;;;;;;;;;;;20.60;99.90;;;;;;5121371;27;19930;-79
2023/07/09 05:14:31;;;;;;;;;;;20.70;99.90;;;;;;5138350;27;19925;-78
2023/07/09 05:16:56;;;;;;;;;;;20.80;99.90;;;;;;5138511;27;19919;-78
2023/07/09 05:19:22;;;;;;;;;;;20.90;99.90;;;;;;5121694;27;19926;-81
2023/07/09 05:21:48;;;;;;;;;;;21.00;99.90;;;;;;5138321;27;19924;-83
2023/07/09 05:24:14;;;;;;;;;;;21.10;99.90;;;;;;5138814;27;19927;-82
2023/07/09 05:26:39;;;;;;;;;;;21.30;99.90;;;;;;5138791;27;20436;-81
2023/07/09 05:29:07;;;;;;;;;;;21.40;99.90;;;;;;5121220;27;19923;-81
2023/07/09 05:31:32;;;;;;;;;;;21.50;99.90;;;;;;5120633;27;19919;-82
2023/07/09 05:33:59;;;;;;;;;;;21.60;99.90;;;;;;5138018;27;20322;-84
2023/07/09 05:36:26;;;;;;;;;;;21.70;99.90;;;;;;5137779;27;19923;-82
2023/07/09 05:38:51;;;;;;;;;;;21.80;99.90;;;;;;5138081;27;19922;-79
2023/07/09 05:41:17;;;;;;;;;;;21.90;99.90;;;;;;5103376;27;20360;-78
2023/07/09 05:43:44;;;;;;;;;;;22.10;99.90;;;;;;5120299;27;19919;-79
2023/07/09 05:46:10;;;;;;;;;;;22.10;99.90;;;;;;5120949;27;19930;-79
2023/07/09 05:48:35;;;;;;;;;;;22.20;99.90;;;;;;5137027;27;20415;-78
2023/07/09 05:51:07;;;;;;;;;;;22.20;99.90;;;;;;5121359;27;19925;-78
2023/07/09 05:53:33;;;;;;;;;;;22.30;99.90;;;;;;5138075;27;20399;-82
2023/07/09 05:55:59;;;;;;;;;;;22.40;99.90;;;;;;5121064;27;19919;-84
2023/07/09 05:58:24;;;;;;;;;;;22.50;99.90;;;;;;5137761;27;19929;-79
2023/07/09 06:00:53;;;;;;;;;;;22.60;99.90;;;;;;5137372;27;19923;-79
2023/07/09 06:03:19;;;;;;;;;;;22.80;99.90;;;;;;5137170;27;19930;-78
2023/07/09 06:05:45;;;;;;;;;;;22.80;99.90;;;;;;5154782;27;19926;-80
2023/07/09 06:08:12;;;;;;;;;;;22.90;99.90;;;;;;5137633;27;19926;-83
2023/07/09 06:10:40;;;;;;;;;;;23.00;99.90;;;;;;5133409;27;20381;-81
2023/07/09 06:13:07;;;;;;;;;;;23.10;99.90;;;;;;5116511;27;19933;-80
2023/07/09 06:15:36;;;;;;;;;;;23.20;99.90;;;;;;5134982;27;19978;-77
2023/07/09 06:18:01;;;;;;;;;;;23.20;99.90;;;;;;5116207;27;19963;-81
2023/07/09 06:20:27;;;;;;;;;;;23.20;99.90;;;;;;5134460;27;19923;-83
2023/07/09 06:22:52;;;;;;;;;;;23.20;99.90;;;;;;5115841;27;19931;-81
2023/07/09 06:25:18;;;;;;;;;;;23.20;99.90;;;;;;5116747;27;20370;-82
2023/07/09 06:27:44;;;;;;;;;;;23.30;99.90;;;;;;5134493;27;19987;-82
2023/07/09 06:30:09;;;;;;;;;;;23.30;99.90;;;;;;5117327;27;20261;-80
2023/07/09 06:32:40;;;;;;;;;;;23.30;99.90;;;;;;5134917;27;19978;-78
2023/07/09 06:35:07;;;;;;;;;;;23.40;99.90;;;;;;5155654;27;19919;-80
2023/07/09 06:37:33;;;;;;;;;;;23.50;99.90;;;;;;5102520;27;19926;-80
2023/07/09 06:39:59;;;;;;;;;;;23.70;99.90;;;;;;5101713;27;19919;-82
2023/07/09 06:42:24;;;;;;;;;;;23.80;99.90;;;;;;5102529;27;20376;-77
2023/07/09 06:44:51;;;;;;;;;;;24.00;99.90;;;;;;5136286;27;19930;-80
2023/07/09 06:47:17;;;;;;;;;;;24.20;99.90;;;;;;5119595;27;19919;-79
2023/07/09 06:49:43;;;;;;;;;;;24.40;99.90;;;;;;5130346;27;19919;-78
2023/07/09 06:52:09;;;;;;;;;;;24.60;99.90;;;;;;5116039;27;19920;-83
2023/07/09 06:54:34;;;;;;;;;;;24.80;99.90;;;;;;5098613;27;19926;-79
2023/07/09 06:57:00;;;;;;;;;;;25.10;99.90;;;;;;5098952;27;19919;-80
2023/07/09 06:59:26;;;;;;;;;;;25.20;99.90;;;;;;5116342;27;19924;-79
2023/07/09 07:01:52;;;;;;;;;;;25.30;99.90;;;;;;5098498;27;19934;-78
2023/07/09 07:04:18;;;;;;;;;;;25.30;99.90;;;;;;5099061;27;19923;-78
2023/07/09 07:06:44;;;;;;;;;;;25.30;99.90;;;;;;5099175;27;20379;-81
2023/07/09 07:09:10;;;;;;;;;;;25.20;99.90;;;;;;5115921;27;20287;-76
2023/07/09 07:11:35;;;;;;;;;;;25.20;99.90;;;;;;5098679;27;19926;-81
2023/07/09 07:14:01;;;;;;;;;;;25.40;99.90;;;;;;5115120;27;19945;-83
2023/07/09 07:16:27;;;;;;;;;;;25.50;99.90;;;;;;5098493;27;20014;-78
2023/07/09 07:18:52;;;;;;;;;;;25.60;99.90;;;;;;5097932;27;20375;-83
2023/07/09 07:21:18;;;;;;;;;;;25.80;99.90;;;;;;5115604;27;19920;-83
2023/07/09 07:23:44;;;;;;;;;;;26.00;99.90;;;;;;5115056;27;19928;-83
2023/07/09 07:26:09;;;;;;;;;;;26.30;99.90;;;;;;5115065;27;19924;-82
2023/07/09 07:28:38;;;;;;;;;;;26.50;99.90;;;;;;5133838;27;19920;-80
2023/07/09 07:31:05;;;;;;;;;;;26.70;99.90;;;;;;5115077;27;19931;-80
2023/07/09 07:33:32;;;;;;;;;;;27.00;99.90;;;;;;5116004;27;20392;-79
2023/07/09 07:35:57;;;;;;;;;;;27.20;99.90;;;;;;5099555;27;19931;-81
2023/07/09 07:38:23;;;;;;;;;;;27.40;99.90;;;;;;5115648;27;19923;-82
2023/07/09 07:40:49;;;;;;;;;;;27.60;99.90;;;;;;5115383;27;19919;-82
2023/07/09 07:43:14;;;;;;;;;;;27.60;99.90;;;;;;5081816;27;19927;-80
2023/07/09 07:45:40;;;;;;;;;;;27.50;99.90;;;;;;5134206;27;19920;-79
2023/07/09 07:48:06;;;;;;;;;;;27.40;99.90;;;;;;5097894;27;19919;-82
2023/07/09 07:50:31;;;;;;;;;;;27.40;99.90;;;;;;5128397;27;19927;-84
2023/07/09 07:52:57;;;;;;;;;;;27.40;99.90;;;;;;5117616;27;19929;-82
2023/07/09 07:55:24;;;;;;;;;;;27.40;99.90;;;;;;5118241;27;19923;-76
2023/07/09 07:57:50;;;;;;;;;;;27.40;99.90;;;;;;5135382;27;19923;-83
2023/07/09 08:00:15;;;;;;;;;;;27.50;99.90;;;;;;5135202;27;19919;-81
2023/07/09 08:02:41;;;;;;;;;;;27.70;99.90;;;;;;5122333;27;19972;-84
2023/07/09 08:05:08;;;;;;;;;;;27.80;99.90;;;;;;5132681;28;19926;-79
2023/07/09 08:07:33;;;;;;;;;;;27.90;99.90;;;;;;5133671;28;20002;-79
2023/07/09 08:09:59;;;;;;;;;;;28.00;99.90;;;;;;5114673;28;20407;-77
2023/07/09 08:12:24;;;;;;;;;;;28.10;99.90;;;;;;5098111;28;19923;-82
2023/07/09 08:14:50;;;;;;;;;;;28.10;99.90;;;;;;5114564;28;20015;-81
2023/07/09 08:17:15;;;;;;;;;;;28.20;99.90;;;;;;5114890;28;19923;-83
2023/07/09 08:19:59;;;;;;;;;;;28.30;99.90;;;;;;5114809;28;19939;-80
2023/07/09 08:22:25;;;;;;;;;;;28.40;99.90;;;;;;5097780;28;19930;-82
2023/07/09 08:24:52;;;;;;;;;;;28.50;99.90;;;;;;5087362;28;20015;-80
2023/07/09 08:27:18;;;;;;;;;;;28.60;99.90;;;;;;5090820;28;20015;-80
2023/07/09 08:29:44;;;;;;;;;;;28.60;99.90;;;;;;5091089;28;19924;-79
2023/07/09 08:32:11;;;;;;;;;;;28.60;99.90;;;;;;5090248;28;20060;-82
2023/07/09 08:34:38;;;;;;;;;;;28.50;99.90;;;;;;5090796;28;20027;-81
2023/07/09 08:37:04;;;;;;;;;;;28.50;99.90;;;;;;5073659;28;20004;-80
2023/07/09 08:39:30;;;;;;;;;;;28.60;99.90;;;;;;5074149;28;19920;-82
2023/07/09 08:42:01;;;;;;;;;;;28.70;99.90;;;;;;5091166;28;19975;-78
2023/07/09 08:44:36;;;;;;;;;;;28.80;99.90;;;;;;5090650;28;19965;-81
2023/07/09 08:47:15;;;;;;;;;;;28.80;99.90;;;;;;5073353;28;19939;-80
2023/07/09 08:49:43;;;;;;;;;;;28.90;99.90;;;;;;5095539;28;19920;-83
2023/07/09 08:52:24;;;;;;;;;;;29.10;99.90;;;;;;5092993;28;20396;-83
2023/07/09 08:54:50;;;;;;;;;;;29.20;99.90;;;;;;5110216;28;19923;-78
2023/07/09 08:57:23;;;;;;;;;;;29.30;99.60;;;;;;5110739;28;19926;-78
2023/07/09 08:59:52;;;;;;;;;;;29.40;99.80;;;;;;5073147;28;19920;-81
2023/07/09 09:02:41;;;;;;;;;;;29.60;99.60;;;;;;5090118;28;20019;-82
2023/07/09 09:05:08;;;;;;;;;;;29.70;99.10;;;;;;5081523;28;19924;-82
2023/07/09 09:07:39;;;;;;;;;;;29.90;98.80;;;;;;5076970;28;19971;-83
2023/07/09 09:10:05;;;;;;;;;;;30.00;98.20;;;;;;5076655;28;19924;-81
2023/07/09 09:12:35;;;;;;;;;;;29.90;97.50;;;;;;5111170;28;20324;-80
2023/07/09 09:15:04;;;;;;;;;;;29.80;98.50;;;;;;5093638;28;20420;-80
2023/07/09 09:17:33;;;;;;;;;;;29.90;98.00;;;;;;5076857;28;19924;-80
2023/07/09 09:20:01;;;;;;;;;;;30.00;98.00;;;;;;5093783;28;19924;-81
2023/07/09 09:22:32;;;;;;;;;;;29.90;97.70;;;;;;5093640;28;19924;-82
2023/07/09 09:25:16;;;;;;;;;;;29.90;97.80;;;;;;5109226;27;20304;-82
2023/07/09 09:27:42;;;;;;;;;;;29.90;97.90;;;;;;5100038;27;19923;-80
2023/07/09 09:30:15;;;;;;;;;;;29.80;97.70;;;;;;5099911;27;19923;-81
2023/07/09 09:32:47;;;;;;;;;;;29.80;97.90;;;;;;5100352;27;19972;-78
2023/07/09 09:35:17;;;;;;;;;;;29.80;97.80;;;;;;5116651;27;19924;-81
2023/07/09 09:37:53;;;;;;;;;;;29.90;97.80;;;;;;5134820;27;20400;-82
2023/07/09 09:40:23;;;;;;;;;;;29.90;98.00;;;;;;5118333;27;19919;-82
2023/07/09 09:42:49;;;;;;;;;;;30.00;98.30;;;;;;5134997;27;20022;-85
2023/07/09 09:45:19;;;;;;;;;;;30.20;98.30;;;;;;5101214;27;19951;-81
2023/07/09 09:47:45;;;;;;;;;;;30.20;98.00;;;;;;5134479;27;20015;-80
2023/07/09 09:50:18;;;;;;;;;;;30.10;98.00;;;;;;5116351;27;19926;-82
2023/07/09 09:52:46;;;;;;;;;;;29.90;98.20;;;;;;5099936;27;19919;-83
2023/07/09 09:55:16;;;;;;;;;;;29.80;98.40;;;;;;5117219;27;19954;-79
2023/07/09 09:57:53;;;;;;;;;;;29.80;98.90;;;;;;5116812;27;19977;-82
2023/07/09 10:00:23;;;;;;;;;;;29.80;98.40;;;;;;5116499;27;19923;-79
2023/07/09 10:02:48;;;;;;;;;;;29.80;98.40;;;;;;5116303;27;20039;-79
2023/07/09 10:05:15;;;;;;;;;;;29.90;98.20;;;;;;5116645;27;19977;-78
2023/07/09 10:07:54;;;;;;;;;;;29.90;98.00;;;;;;5117174;27;20409;-79
2023/07/09 10:10:22;;;;;;;;;;;29.90;98.10;;;;;;5116868;27;19988;-82
2023/07/09 10:12:48;;;;;;;;;;;30.00;98.50;;;;;;5117300;27;19920;-81
2023/07/09 10:15:33;;;;;;;;;;;30.00;98.20;;;;;;5115194;27;20387;-85
2023/07/09 10:18:17;;;;;;;;;;;30.00;98.00;;;;;;5116206;27;19919;-82
2023/07/09 10:21:00;;;;;;;;;;;30.00;98.40;;;;;;5099169;27;19919;-79
2023/07/09 10:23:35;;;;;;;;;;;30.00;98.20;;;;;;5116332;27;20015;-83
2023/07/09 10:26:10;;;;;;;;;;;30.10;97.90;;;;;;5116096;27;20292;-82
2023/07/09 10:28:42;;;;;;;;;;;30.10;98.00;;;;;;5116534;27;19923;-80
2023/07/09 10:31:13;;;;;;;;;;;30.20;97.70;;;;;;5099710;27;19919;-77
2023/07/09 10:33:42;;;;;;;;;;;30.30;97.50;;;;;;5134774;27;20296;-79
2023/07/09 10:36:07;;;;;;;;;;;30.30;97.30;;;;;;5116907;27;20258;-78
2023/07/09 10:38:36;;;;;;;;;;;30.30;97.00;;;;;;5116561;27;19930;-78
2023/07/09 10:41:05;;;;;;;;;;;30.40;96.60;;;;;;5115857;27;20041;-80
2023/07/09 10:43:31;;;;;;;;;;;30.40;96.60;;;;;;5099036;27;20701;-78
2023/07/09 10:46:02;;;;;;;;;;;30.40;96.90;;;;;;5116558;27;19942;-82
2023/07/09 10:48:33;;;;;;;;;;;30.40;96.50;;;;;;5116633;27;19919;-80
2023/07/09 10:51:01;;;;;;;;;;;30.40;96.70;;;;;;5123581;27;19919;-82
2023/07/09 10:53:32;;;;;;;;;;;30.30;97.00;;;;;;5100436;27;20014;-82
2023/07/09 10:56:12;;;;;;;;;;;30.30;97.20;;;;;;5099214;27;19927;-80
2023/07/09 10:58:43;;;;;;;;;;;30.40;97.20;;;;;;5116107;27;20379;-78
2023/07/09 11:01:12;;;;;;;;;;;30.70;97.60;;;;;;5115472;27;20019;-83
2023/07/09 11:03:55;;;;;;;;;;;30.80;96.60;;;;;;5134047;27;20407;-79
2023/07/09 11:06:28;;;;;;;;;;;31.00;96.50;;;;;;5116069;27;20018;-85
2023/07/09 11:09:00;;;;;;;;;;;30.90;95.80;;;;;;5100361;27;19926;-78
2023/07/09 11:11:40;;;;;;;;;;;30.70;95.90;;;;;;5116152;27;19936;-79
2023/07/09 11:14:11;;;;;;;;;;;30.70;95.80;;;;;;5114959;27;19923;-81
2023/07/09 11:16:39;;;;;;;;;;;30.70;95.30;;;;;;5115966;27;19923;-83
2023/07/09 11:19:06;;;;;;;;;;;30.70;95.00;;;;;;5098243;27;19931;-80
2023/07/09 11:21:32;;;;;;;;;;;30.70;94.90;;;;;;5115337;27;19927;-80
2023/07/09 11:23:59;;;;;;;;;;;30.60;94.50;;;;;;5098596;27;19919;-80
2023/07/09 11:26:44;;;;;;;;;;;30.60;94.50;;;;;;5115330;27;19930;-80
2023/07/09 11:29:14;;;;;;;;;;;30.70;94.30;;;;;;5115411;27;19927;-86
2023/07/09 11:31:41;;;;;;;;;;;30.80;94.20;;;;;;5115671;27;19926;-81
2023/07/09 11:34:18;;;;;;;;;;;30.80;94.40;;;;;;5134469;27;20006;-80
2023/07/09 11:36:47;;;;;;;;;;;30.90;94.40;;;;;;5116026;27;19927;-84
2023/07/09 11:39:42;;;;;;;;;;;31.00;94.70;;;;;;5115100;27;20039;-77
2023/07/09 11:42:24;;;;;;;;;;;31.10;94.50;;;;;;5098057;27;20120;-81
2023/07/09 11:44:51;;;;;;;;;;;31.20;94.20;;;;;;5097993;27;19920;-84
2023/07/09 11:47:25;;;;;;;;;;;31.30;96.00;;;;;;5143640;27;19926;-82
2023/07/09 11:49:53;;;;;;;;;;;31.60;95.80;;;;;;5154869;27;20276;-81
2023/07/09 11:52:24;;;;;;;;;;;31.90;94.00;;;;;;5136285;27;19918;-81
2023/07/09 11:54:51;;;;;;;;;;;31.90;94.00;;;;;;5136923;27;19919;-80
2023/07/09 11:57:17;;;;;;;;;;;32.00;93.90;;;;;;5137258;27;20312;-84
2023/07/09 11:59:43;;;;;;;;;;;32.00;93.60;;;;;;5135806;27;19984;-79
2023/07/09 12:02:20;;;;;;;;;;;31.80;93.40;;;;;;5135636;27;19962;-84
2023/07/09 12:04:50;;;;;;;;;;;31.80;93.50;;;;;;5135778;27;19984;-81
2023/07/09 12:07:16;;;;;;;;;;;32.00;93.60;;;;;;5118360;27;19926;-80
2023/07/09 12:09:45;;;;;;;;;;;32.00;92.90;;;;;;5118733;27;20352;-81
2023/07/09 12:12:18;;;;;;;;;;;32.10;93.80;;;;;;5135086;27;19944;-87
2023/07/09 12:14:44;;;;;;;;;;;32.10;93.00;;;;;;5118003;27;19919;-81
2023/07/09 12:17:09;;;;;;;;;;;32.30;93.10;;;;;;5135736;27;19923;-81
2023/07/09 12:19:35;;;;;;;;;;;32.50;92.80;;;;;;5153881;27;20372;-80
2023/07/09 12:22:01;;;;;;;;;;;32.60;92.60;;;;;;5118048;27;19923;-85
2023/07/09 12:24:27;;;;;;;;;;;32.70;92.10;;;;;;5134749;27;20364;-84
2023/07/09 12:27:02;;;;;;;;;;;32.60;91.60;;;;;;5135388;27;20509;-80
2023/07/09 12:29:29;;;;;;;;;;;32.70;90.50;;;;;;5135251;27;20615;-79
2023/07/09 12:31:58;;;;;;;;;;;32.80;88.30;;;;;;5134887;27;20002;-80
2023/07/09 12:34:24;;;;;;;;;;;32.70;87.70;;;;;;5134630;27;20424;-79
2023/07/09 12:36:51;;;;;;;;;;;32.70;86.20;;;;;;5135061;27;19966;-81
2023/07/09 12:39:20;;;;;;;;;;;32.80;88.50;;;;;;5136997;27;19919;-85
2023/07/09 12:41:46;;;;;;;;;;;32.80;87.70;;;;;;5138895;27;19945;-83
2023/07/09 12:44:16;;;;;;;;;;;32.60;85.00;;;;;;5139072;27;19930;-81
2023/07/09 12:46:42;;;;;;;;;;;32.60;86.40;;;;;;5121968;27;19930;-84
2023/07/09 12:49:08;;;;;;;;;;;32.70;87.30;;;;;;5121361;27;19919;-81
2023/07/09 12:51:37;;;;;;;;;;;32.80;86.10;;;;;;5139177;27;19930;-82
2023/07/09 12:54:13;;;;;;;;;;;32.80;86.10;;;;;;5139349;27;20079;-80
2023/07/09 12:56:39;;;;;;;;;;;32.70;84.50;;;;;;5157237;27;20294;-79
2023/07/09 12:59:23;;;;;;;;;;;32.70;87.20;;;;;;5139905;27;19923;-82
2023/07/09 13:01:50;;;;;;;;;;;32.80;89.40;;;;;;5139388;27;19934;-81
2023/07/09 13:04:16;;;;;;;;;;;33.10;87.30;;;;;;5138665;27;19966;-87
2023/07/09 13:06:43;;;;;;;;;;;33.20;86.50;;;;;;5121728;27;20452;-78
2023/07/09 13:09:16;;;;;;;;;;;33.30;87.00;;;;;;5121817;27;19966;-85
2023/07/09 13:11:41;;;;;;;;;;;33.60;87.60;;;;;;5121623;27;19975;-83
2023/07/09 13:14:15;;;;;;;;;;;33.60;86.60;;;;;;5138194;27;19958;-79
2023/07/09 13:16:41;;;;;;;;;;;33.60;87.80;;;;;;5138837;27;19926;-84
2023/07/09 13:19:07;;;;;;;;;;;33.60;87.50;;;;;;5122608;27;19919;-79
2023/07/09 13:21:36;;;;;;;;;;;33.60;86.10;;;;;;5157287;27;19930;-82
2023/07/09 13:24:04;;;;;;;;;;;33.60;84.80;;;;;;5139725;27;19930;-84
2023/07/09 13:26:30;;;;;;;;;;;33.40;85.90;;;;;;5138660;27;19934;-84
2023/07/09 13:28:56;;;;;;;;;;;33.00;84.60;;;;;;5157102;27;19919;-80
2023/07/09 13:31:22;;;;;;;;;;;32.90;85.90;;;;;;5121407;27;20296;-80
2023/07/09 13:33:54;;;;;;;;;;;32.90;84.30;;;;;;5138977;27;19966;-79
2023/07/09 13:36:20;;;;;;;;;;;32.90;86.20;;;;;;5121405;27;19930;-81
2023/07/09 13:38:46;;;;;;;;;;;33.00;85.50;;;;;;5137961;27;20435;-83
2023/07/09 13:41:14;;;;;;;;;;;33.30;87.40;;;;;;5156541;27;20353;-85
2023/07/09 13:43:42;;;;;;;;;;;33.60;86.30;;;;;;5138271;27;19927;-80
2023/07/09 13:46:07;;;;;;;;;;;34.00;85.40;;;;;;5139559;27;19926;-82
2023/07/09 13:48:34;;;;;;;;;;;34.10;84.60;;;;;;5137961;27;20376;-84
2023/07/09 13:51:00;;;;;;;;;;;34.00;84.30;;;;;;5120842;27;19923;-85
2023/07/09 13:53:29;;;;;;;;;;;34.00;84.60;;;;;;5137960;27;19972;-83
2023/07/09 13:55:55;;;;;;;;;;;33.90;86.90;;;;;;5138212;27;19923;-80
2023/07/09 13:58:21;;;;;;;;;;;33.90;84.70;;;;;;5137355;27;19930;-82
2023/07/09 14:00:48;;;;;;;;;;;34.10;83.90;;;;;;5156740;27;19919;-79
2023/07/09 14:03:15;;;;;;;;;;;34.20;83.90;;;;;;5121454;27;19970;-83
2023/07/09 14:05:40;;;;;;;;;;;34.30;85.20;;;;;;5138680;27;19923;-78
2023/07/09 14:08:07;;;;;;;;;;;34.30;83.80;;;;;;5137401;27;19919;-80
2023/07/09 14:10:33;;;;;;;;;;;34.30;82.90;;;;;;5120551;27;19926;-83
2023/07/09 14:12:58;;;;;;;;;;;34.20;83.40;;;;;;5137974;27;19919;-82
2023/07/09 14:15:24;;;;;;;;;;;34.10;83.50;;;;;;5120633;27;19919;-81
2023/07/09 14:17:50;;;;;;;;;;;34.30;81.90;;;;;;5120904;27;19919;-80
2023/07/09 14:20:18;;;;;;;;;;;34.50;82.50;;;;;;5120314;27;19923;-79